createdAt,value
2019-02-28T00:00:44.400Z,6.89
2019-02-28T00:01:46.468Z,6.92
2019-02-28T00:02:44.408Z,6.87
2019-02-28T00:04:43.355Z,6.83
2019-02-28T00:05:44.346Z,6.86
2019-02-28T00:06:45.147Z,6.83
2019-02-28T00:07:44.331Z,6.83
2019-02-28T00:08:53.693Z,6.83
2019-02-28T00:09:44.308Z,6.86
2019-02-28T00:10:44.296Z,6.87
2019-02-28T00:11:44.280Z,6.86
2019-02-28T00:12:45.284Z,6.82
2019-02-28T00:13:44.249Z,6.85
2019-02-28T00:14:45.596Z,6.83
2019-02-28T00:15:44.264Z,6.83
2019-02-28T00:16:44.229Z,6.89
2019-02-28T00:17:44.215Z,6.89
2019-02-28T00:18:44.206Z,6.89
2019-02-28T00:19:44.194Z,6.83
2019-02-28T00:20:46.980Z,6.87
2019-02-28T00:21:44.196Z,6.83
2019-02-28T00:22:49.184Z,6.77
2019-02-28T00:23:44.176Z,6.85
2019-02-28T00:24:44.135Z,6.72
2019-02-28T00:25:44.126Z,6.77
2019-02-28T00:26:47.567Z,6.74
2019-02-28T00:27:44.112Z,6.71
2019-02-28T00:28:44.090Z,6.64
2019-02-28T00:29:46.017Z,6.74
2019-02-28T00:31:49.433Z,6.67
2019-02-28T00:32:44.052Z,6.72
2019-02-28T00:33:44.042Z,6.77
2019-02-28T00:34:44.034Z,6.62
2019-02-28T00:35:44.683Z,6.68
2019-02-28T00:36:44.013Z,6.67
2019-02-28T00:37:43.992Z,6.64
2019-02-28T00:38:44.024Z,6.54
2019-02-28T00:39:43.972Z,6.60
2019-02-28T00:40:43.964Z,6.56
2019-02-28T00:41:46.484Z,6.57
2019-02-28T00:42:43.940Z,6.60
2019-02-28T00:43:43.936Z,6.52
2019-02-28T00:44:43.942Z,6.39
2019-02-28T00:45:43.912Z,6.34
2019-02-28T00:46:45.232Z,6.43
2019-02-28T00:47:43.878Z,6.41
2019-02-28T00:48:43.923Z,6.32
2019-02-28T00:49:43.869Z,6.34
2019-02-28T00:50:43.860Z,6.22
2019-02-28T00:51:43.844Z,6.26
2019-02-28T00:52:43.827Z,6.31
2019-02-28T00:53:43.822Z,6.22
2019-02-28T00:54:44.516Z,6.26
2019-02-28T00:55:45.984Z,6.20
2019-02-28T00:56:43.784Z,6.29
2019-02-28T00:57:43.774Z,6.20
2019-02-28T00:58:43.770Z,6.25
2019-02-28T00:59:43.750Z,6.20
2019-02-28T01:00:43.776Z,6.13
2019-02-28T01:01:46.049Z,6.16
2019-02-28T01:02:43.724Z,6.22
2019-02-28T01:03:43.729Z,6.12
2019-02-28T01:04:43.713Z,6.25
2019-02-28T01:05:43.688Z,6.10
2019-02-28T01:06:43.684Z,6.19
2019-02-28T01:08:42.690Z,6.20
2019-02-28T01:09:43.656Z,6.16
2019-02-28T01:10:43.670Z,6.19
2019-02-28T01:11:44.929Z,6.16
2019-02-28T01:12:43.619Z,6.20
2019-02-28T01:13:43.602Z,6.19
2019-02-28T01:14:43.594Z,6.29
2019-02-28T01:15:46.485Z,6.13
2019-02-28T01:16:43.594Z,6.19
2019-02-28T01:17:43.553Z,6.16
2019-02-28T01:18:43.542Z,6.10
2019-02-28T01:19:43.540Z,6.17
2019-02-28T01:20:43.518Z,6.16
2019-02-28T01:21:43.509Z,6.09
2019-02-28T01:22:43.530Z,6.06
2019-02-28T01:23:43.499Z,6.10
2019-02-28T01:24:43.485Z,6.13
2019-02-28T01:25:43.467Z,6.07
2019-02-28T01:26:46.720Z,6.07
2019-02-28T01:27:43.445Z,6.07
2019-02-28T01:28:45.957Z,6.12
2019-02-28T01:29:43.427Z,6.16
2019-02-28T01:30:43.411Z,6.15
2019-02-28T01:31:43.495Z,6.12
2019-02-28T01:32:43.393Z,6.13
2019-02-28T01:34:42.371Z,6.09
2019-02-28T01:35:43.368Z,6.13
2019-02-28T01:36:45.944Z,5.99
2019-02-28T01:37:43.341Z,6.01
2019-02-28T01:38:43.328Z,6.05
2019-02-28T01:39:43.317Z,6.05
2019-02-28T01:40:43.308Z,5.99
2019-02-28T01:41:45.182Z,5.94
2019-02-28T01:42:43.284Z,5.98
2019-02-28T01:43:43.272Z,5.88
2019-02-28T01:44:43.268Z,5.87
2019-02-28T01:45:44.301Z,5.90
2019-02-28T01:46:43.367Z,5.90
2019-02-28T01:47:43.238Z,5.83
2019-02-28T01:48:43.226Z,5.76
2019-02-28T01:49:43.209Z,5.76
2019-02-28T01:51:42.181Z,5.83
2019-02-28T01:52:45.974Z,5.74
2019-02-28T01:53:43.164Z,5.74
2019-02-28T01:54:43.159Z,5.79
2019-02-28T01:55:43.146Z,5.73
2019-02-28T01:56:43.131Z,5.72
2019-02-28T01:57:44.346Z,5.77
2019-02-28T01:58:43.157Z,5.77
2019-02-28T01:59:43.115Z,5.67
2019-02-28T02:00:43.095Z,5.76
2019-02-28T02:01:43.087Z,5.81
2019-02-28T02:02:43.077Z,5.74
2019-02-28T02:03:43.055Z,5.77
2019-02-28T02:04:45.540Z,5.77
2019-02-28T02:05:43.035Z,5.77
2019-02-28T02:06:43.025Z,5.72
2019-02-28T02:07:43.023Z,5.77
2019-02-28T02:08:43.006Z,5.80
2019-02-28T02:09:46.105Z,5.77
2019-02-28T02:10:43.013Z,5.73
2019-02-28T02:11:43.001Z,5.74
2019-02-28T02:12:42.962Z,5.83
2019-02-28T02:13:42.945Z,5.74
2019-02-28T02:14:45.653Z,5.74
2019-02-28T02:15:45.441Z,5.84
2019-02-28T02:16:42.915Z,5.74
2019-02-28T02:17:42.933Z,5.74
2019-02-28T02:18:43.327Z,5.73
2019-02-28T02:19:42.885Z,5.76
2019-02-28T02:20:42.876Z,5.73
2019-02-28T02:21:42.870Z,5.74
2019-02-28T02:22:44.592Z,5.87
2019-02-28T02:23:42.876Z,5.79
2019-02-28T02:24:42.845Z,5.81
2019-02-28T02:25:42.819Z,5.83
2019-02-28T02:26:45.227Z,5.81
2019-02-28T02:27:42.811Z,5.90
2019-02-28T02:29:41.782Z,5.91
2019-02-28T02:30:42.766Z,5.88
2019-02-28T02:31:43.695Z,5.91
2019-02-28T02:32:42.783Z,5.97
2019-02-28T02:33:42.734Z,5.94
2019-02-28T02:34:42.753Z,5.95
2019-02-28T02:35:43.642Z,5.94
2019-02-28T02:36:42.709Z,5.98
2019-02-28T02:37:42.693Z,5.81
2019-02-28T02:38:42.688Z,5.90
2019-02-28T02:39:42.708Z,5.74
2019-02-28T02:41:42.433Z,5.84
2019-02-28T02:42:47.230Z,5.72
2019-02-28T02:43:42.627Z,5.79
2019-02-28T02:44:42.614Z,5.74
2019-02-28T02:45:43.781Z,5.69
2019-02-28T02:46:42.601Z,5.70
2019-02-28T02:47:43.433Z,5.70
2019-02-28T02:48:43.406Z,5.67
2019-02-28T02:49:42.590Z,5.72
2019-02-28T02:50:42.552Z,5.67
2019-02-28T02:51:49.170Z,5.61
2019-02-28T02:52:42.530Z,5.59
2019-02-28T02:53:43.371Z,5.59
2019-02-28T02:54:42.534Z,5.58
2019-02-28T02:55:42.493Z,5.61
2019-02-28T02:56:42.512Z,5.72
2019-02-28T02:57:42.488Z,5.73
2019-02-28T02:58:42.466Z,5.73
2019-02-28T02:59:42.472Z,5.64
2019-02-28T03:00:49.630Z,5.64
2019-02-28T03:01:42.429Z,5.64
2019-02-28T03:02:42.433Z,5.67
2019-02-28T03:03:44.293Z,5.59
2019-02-28T03:04:42.410Z,5.62
2019-02-28T03:05:42.392Z,5.61
2019-02-28T03:06:45.936Z,5.55
2019-02-28T03:07:42.371Z,5.44
2019-02-28T03:08:42.362Z,5.54
2019-02-28T03:09:43.782Z,5.58
2019-02-28T03:10:42.338Z,5.56
2019-02-28T03:11:42.328Z,5.61
2019-02-28T03:12:42.335Z,5.62
2019-02-28T03:13:44.036Z,5.70
2019-02-28T03:14:42.339Z,5.65
2019-02-28T03:15:42.286Z,5.69
2019-02-28T03:16:42.271Z,5.76
2019-02-28T03:17:46.688Z,5.70
2019-02-28T03:18:42.254Z,5.74
2019-02-28T03:19:42.240Z,5.72
2019-02-28T03:20:42.597Z,5.74
2019-02-28T03:21:42.224Z,5.72
2019-02-28T03:22:42.212Z,5.76
2019-02-28T03:23:42.197Z,5.72
2019-02-28T03:24:42.197Z,5.76
2019-02-28T03:25:42.170Z,5.65
2019-02-28T03:26:43.360Z,5.74
2019-02-28T03:27:42.147Z,5.74
2019-02-28T03:28:42.141Z,5.74
2019-02-28T03:29:43.934Z,5.77
2019-02-28T03:30:42.121Z,5.79
2019-02-28T03:31:42.121Z,5.72
2019-02-28T03:32:42.859Z,5.76
2019-02-28T03:33:42.088Z,5.72
2019-02-28T03:34:54.979Z,5.80
2019-02-28T03:35:44.150Z,5.80
2019-02-28T03:36:42.922Z,5.72
2019-02-28T03:37:42.083Z,5.80
2019-02-28T03:38:48.471Z,5.81
2019-02-28T03:39:42.023Z,5.76
2019-02-28T03:40:42.016Z,5.84
2019-02-28T03:41:41.999Z,5.76
2019-02-28T03:42:42.055Z,5.73
2019-02-28T03:43:43.835Z,5.81
2019-02-28T03:44:41.974Z,5.87
2019-02-28T03:45:41.957Z,5.81
2019-02-28T03:46:46.429Z,5.83
2019-02-28T03:47:41.945Z,5.76
2019-02-28T03:48:41.928Z,5.83
2019-02-28T03:49:48.675Z,5.88
2019-02-28T03:50:44.410Z,5.88
2019-02-28T03:51:41.897Z,5.90
2019-02-28T03:52:44.300Z,5.90
2019-02-28T03:53:41.877Z,5.99
2019-02-28T03:54:41.858Z,5.98
2019-02-28T03:55:41.852Z,5.99
2019-02-28T03:56:41.840Z,6.02
2019-02-28T03:57:41.836Z,6.06
2019-02-28T03:58:43.178Z,5.99
2019-02-28T03:59:41.823Z,6.09
2019-02-28T04:00:42.414Z,6.06
2019-02-28T04:01:45.641Z,6.07
2019-02-28T04:02:41.783Z,6.09
2019-02-28T04:03:41.760Z,6.10
2019-02-28T04:04:48.819Z,6.13
2019-02-28T04:05:41.751Z,6.20
2019-02-28T04:06:41.757Z,6.20
2019-02-28T04:07:41.727Z,6.13
2019-02-28T04:08:41.720Z,6.19
2019-02-28T04:09:44.325Z,6.19
2019-02-28T04:10:42.404Z,6.25
2019-02-28T04:11:41.676Z,6.20
2019-02-28T04:12:45.632Z,6.17
2019-02-28T04:13:41.679Z,6.25
2019-02-28T04:14:42.411Z,6.16
2019-02-28T04:15:49.561Z,6.20
2019-02-28T04:16:41.641Z,6.20
2019-02-28T04:17:42.454Z,6.25
2019-02-28T04:18:45.904Z,6.28
2019-02-28T04:19:41.588Z,6.17
2019-02-28T04:20:41.588Z,6.13
2019-02-28T04:21:46.216Z,6.26
2019-02-28T04:22:41.573Z,6.13
2019-02-28T04:23:41.570Z,6.25
2019-02-28T04:24:46.330Z,6.19
2019-02-28T04:25:41.526Z,6.16
2019-02-28T04:26:41.518Z,6.26
2019-02-28T04:27:42.040Z,6.32
2019-02-28T04:28:41.507Z,6.31
2019-02-28T04:29:41.482Z,6.28
2019-02-28T04:30:43.768Z,6.25
2019-02-28T04:31:41.469Z,6.29
2019-02-28T04:32:41.481Z,6.26
2019-02-28T04:33:41.446Z,6.28
2019-02-28T04:34:41.437Z,6.26
2019-02-28T04:35:41.423Z,6.29
2019-02-28T04:36:41.416Z,6.20
2019-02-28T04:37:46.737Z,6.28
2019-02-28T04:38:41.392Z,6.26
2019-02-28T04:39:41.372Z,6.25
2019-02-28T04:40:41.383Z,6.35
2019-02-28T04:41:41.367Z,6.31
2019-02-28T04:42:41.347Z,6.31
2019-02-28T04:43:41.562Z,6.34
2019-02-28T04:44:41.318Z,6.29
2019-02-28T04:45:41.316Z,6.28
2019-02-28T04:46:41.307Z,6.28
2019-02-28T04:47:41.681Z,6.32
2019-02-28T04:48:41.276Z,6.34
2019-02-28T04:49:41.299Z,6.22
2019-02-28T04:50:41.255Z,6.28
2019-02-28T04:51:41.245Z,6.34
2019-02-28T04:52:46.758Z,6.35
2019-02-28T04:53:41.222Z,6.35
2019-02-28T04:54:41.216Z,6.31
2019-02-28T04:55:41.224Z,6.35
2019-02-28T04:56:42.291Z,6.35
2019-02-28T04:57:41.898Z,6.44
2019-02-28T04:58:41.172Z,6.44
2019-02-28T04:59:41.208Z,6.46
2019-02-28T05:00:41.151Z,6.44
2019-02-28T05:01:41.134Z,6.43
2019-02-28T05:02:41.136Z,6.50
2019-02-28T05:03:43.891Z,6.47
2019-02-28T05:04:41.892Z,6.41
2019-02-28T05:05:41.126Z,6.47
2019-02-28T05:06:41.086Z,6.52
2019-02-28T05:07:41.081Z,6.44
2019-02-28T05:08:41.074Z,6.52
2019-02-28T05:09:41.050Z,6.41
2019-02-28T05:10:41.047Z,6.43
2019-02-28T05:11:41.058Z,6.44
2019-02-28T05:12:41.276Z,6.39
2019-02-28T05:13:41.285Z,6.39
2019-02-28T05:14:41.000Z,6.38
2019-02-28T05:15:41.175Z,6.41
2019-02-28T05:17:39.968Z,6.50
2019-02-28T05:18:40.964Z,6.43
2019-02-28T05:19:40.946Z,6.46
2019-02-28T05:20:44.689Z,6.44
2019-02-28T05:21:40.922Z,6.44
2019-02-28T05:23:40.386Z,6.49
2019-02-28T05:24:42.678Z,6.52
2019-02-28T05:25:40.877Z,6.53
2019-02-28T05:26:40.863Z,6.56
2019-02-28T05:27:40.864Z,6.54
2019-02-28T05:28:41.383Z,6.53
2019-02-28T05:29:43.867Z,6.53
2019-02-28T05:30:41.532Z,6.53
2019-02-28T05:31:40.813Z,6.56
2019-02-28T05:32:40.802Z,6.53
2019-02-28T05:33:41.886Z,6.57
2019-02-28T05:34:40.804Z,6.54
2019-02-28T05:36:39.762Z,6.60
2019-02-28T05:37:46.677Z,6.56
2019-02-28T05:38:40.740Z,6.59
2019-02-28T05:39:40.753Z,6.59
2019-02-28T05:40:41.498Z,6.57
2019-02-28T05:41:40.706Z,6.57
2019-02-28T05:42:40.699Z,6.68
2019-02-28T05:43:41.382Z,6.70
2019-02-28T05:44:43.378Z,6.71
2019-02-28T05:45:40.696Z,6.70
2019-02-28T05:46:40.649Z,6.70
2019-02-28T05:47:46.336Z,6.74
2019-02-28T05:48:40.633Z,6.74
2019-02-28T05:49:41.083Z,6.74
2019-02-28T05:50:40.605Z,6.65
2019-02-28T05:51:40.619Z,6.70
2019-02-28T05:52:40.581Z,6.74
2019-02-28T05:53:42.444Z,6.70
2019-02-28T05:54:40.566Z,6.75
2019-02-28T05:55:40.552Z,6.75
2019-02-28T05:56:40.558Z,6.87
2019-02-28T05:57:43.498Z,6.82
2019-02-28T05:58:40.524Z,6.78
2019-02-28T05:59:40.518Z,6.80
2019-02-28T06:00:40.504Z,6.85
2019-02-28T06:01:43.586Z,6.86
2019-02-28T06:02:40.477Z,6.87
2019-02-28T06:03:40.498Z,6.83
2019-02-28T06:04:40.459Z,6.83
2019-02-28T06:05:43.388Z,6.92
2019-02-28T06:06:40.437Z,6.89
2019-02-28T06:07:40.437Z,6.92
2019-02-28T06:08:40.418Z,6.96
2019-02-28T06:09:40.426Z,6.93
2019-02-28T06:10:41.375Z,7.07
2019-02-28T06:11:40.382Z,7.00
2019-02-28T06:12:43.963Z,7.04
2019-02-28T06:14:39.346Z,7.19
2019-02-28T06:15:40.367Z,7.18
2019-02-28T06:16:40.361Z,7.31
2019-02-28T06:17:40.315Z,7.29
2019-02-28T06:18:40.869Z,7.44
2019-02-28T06:19:43.389Z,7.44
2019-02-28T06:20:40.277Z,7.41
2019-02-28T06:21:40.279Z,7.48
2019-02-28T06:22:40.297Z,7.64
2019-02-28T06:23:40.992Z,7.61
2019-02-28T06:24:40.234Z,7.66
2019-02-28T06:25:40.247Z,7.61
2019-02-28T06:26:40.209Z,7.66
2019-02-28T06:27:41.824Z,7.64
2019-02-28T06:28:40.192Z,7.74
2019-02-28T06:29:40.182Z,7.75
2019-02-28T06:30:41.479Z,7.74
2019-02-28T06:31:40.166Z,7.83
2019-02-28T06:32:40.148Z,7.75
2019-02-28T06:33:40.150Z,7.87
2019-02-28T06:34:42.208Z,7.83
2019-02-28T06:35:40.120Z,7.81
2019-02-28T06:37:39.195Z,7.93
2019-02-28T06:38:40.078Z,7.96
2019-02-28T06:40:39.404Z,8.06
2019-02-28T06:41:40.794Z,8.11
2019-02-28T06:42:40.043Z,8.14
2019-02-28T06:43:40.043Z,8.21
2019-02-28T06:44:40.018Z,8.21
2019-02-28T06:45:40.052Z,8.27
2019-02-28T06:46:40.832Z,8.23
2019-02-28T06:47:39.983Z,8.18
2019-02-28T06:48:39.992Z,8.24
2019-02-28T06:49:41.835Z,8.34
2019-02-28T06:50:39.946Z,8.35
2019-02-28T06:51:39.966Z,8.34
2019-02-28T06:52:39.928Z,8.28
2019-02-28T06:54:39.912Z,8.34
2019-02-28T06:55:39.934Z,8.34
2019-02-28T06:56:39.884Z,8.34
2019-02-28T06:57:39.898Z,8.36
2019-02-28T06:58:39.872Z,8.38
2019-02-28T06:59:39.911Z,8.34
2019-02-28T07:00:40.386Z,8.34
2019-02-28T07:01:40.396Z,8.36
2019-02-28T07:02:39.812Z,8.38
2019-02-28T07:03:39.920Z,8.35
2019-02-28T07:04:39.792Z,8.39
2019-02-28T07:05:39.816Z,8.32
2019-02-28T07:06:39.773Z,8.45
2019-02-28T07:07:39.770Z,8.50
2019-02-28T07:08:39.760Z,8.49
2019-02-28T07:09:40.381Z,8.49
2019-02-28T07:10:41.529Z,8.59
2019-02-28T07:11:40.350Z,8.57
2019-02-28T07:12:39.710Z,8.68
2019-02-28T07:13:40.225Z,8.66
2019-02-28T07:14:39.719Z,8.75
2019-02-28T07:15:39.682Z,8.74
2019-02-28T07:16:39.724Z,8.78
2019-02-28T07:17:42.713Z,8.79
2019-02-28T07:19:38.626Z,8.93
2019-02-28T07:20:42.348Z,8.92
2019-02-28T07:21:43.242Z,9.08
2019-02-28T07:22:40.150Z,9.05
2019-02-28T07:23:39.586Z,9.11
2019-02-28T07:24:39.629Z,9.15
2019-02-28T07:25:40.350Z,9.11
2019-02-28T07:26:39.554Z,9.12
2019-02-28T07:27:39.545Z,9.16
2019-02-28T07:28:40.366Z,9.08
2019-02-28T07:29:42.754Z,9.12
2019-02-28T07:30:39.552Z,9.22
2019-02-28T07:31:42.350Z,9.19
2019-02-28T07:32:39.490Z,9.22
2019-02-28T07:33:41.273Z,9.31
2019-02-28T07:34:39.467Z,9.33
2019-02-28T07:35:42.348Z,9.44
2019-02-28T07:36:41.518Z,9.42
2019-02-28T07:37:42.344Z,9.56
2019-02-28T07:38:39.442Z,9.54
2019-02-28T07:39:40.436Z,9.58
2019-02-28T07:40:39.398Z,9.63
2019-02-28T07:41:41.378Z,9.67
2019-02-28T07:42:39.380Z,9.70
2019-02-28T07:43:39.390Z,9.72
2019-02-28T07:44:39.355Z,9.84
2019-02-28T07:45:39.405Z,9.81
2019-02-28T07:46:42.406Z,9.82
2019-02-28T07:47:39.321Z,9.87
2019-02-28T07:48:39.381Z,9.92
2019-02-28T07:49:39.306Z,10.12
2019-02-28T07:50:39.319Z,10.07
2019-02-28T07:51:39.283Z,10.23
2019-02-28T07:52:39.278Z,10.23
2019-02-28T07:53:40.933Z,10.28
2019-02-28T07:54:39.271Z,10.36
2019-02-28T07:55:39.256Z,10.34
2019-02-28T07:56:43.130Z,10.33
2019-02-28T07:57:39.226Z,10.42
2019-02-28T07:58:39.203Z,10.38
2019-02-28T07:59:42.351Z,10.46
2019-02-28T08:00:39.190Z,10.53
2019-02-28T08:01:39.189Z,10.62
2019-02-28T08:02:39.995Z,10.75
2019-02-28T08:03:43.489Z,10.65
2019-02-28T08:04:39.158Z,10.80
2019-02-28T08:05:39.138Z,10.82
2019-02-28T08:06:41.839Z,10.86
2019-02-28T08:07:39.104Z,10.86
2019-02-28T08:08:39.096Z,10.94
2019-02-28T08:09:41.831Z,10.89
2019-02-28T08:10:39.108Z,11.02
2019-02-28T08:11:39.056Z,10.92
2019-02-28T08:12:39.060Z,11.02
2019-02-28T08:13:39.031Z,11.00
2019-02-28T08:14:39.078Z,11.04
2019-02-28T08:15:39.019Z,11.05
2019-02-28T08:16:39.006Z,11.01
2019-02-28T08:17:40.637Z,11.12
2019-02-28T08:18:38.984Z,11.19
2019-02-28T08:19:38.972Z,11.16
2019-02-28T08:20:39.838Z,11.10
2019-02-28T08:21:43.975Z,11.20
2019-02-28T08:22:38.946Z,11.22
2019-02-28T08:23:38.926Z,11.26
2019-02-28T08:24:38.910Z,11.31
2019-02-28T08:25:42.818Z,11.31
2019-02-28T08:26:39.383Z,11.34
2019-02-28T08:27:38.884Z,11.35
2019-02-28T08:28:38.874Z,11.49
2019-02-28T08:29:38.863Z,11.43
2019-02-28T08:30:38.856Z,11.40
2019-02-28T08:31:38.890Z,11.48
2019-02-28T08:32:42.392Z,11.48
2019-02-28T08:33:38.818Z,11.49
2019-02-28T08:34:38.813Z,11.51
2019-02-28T08:36:37.808Z,11.55
2019-02-28T08:37:38.770Z,11.63
2019-02-28T08:38:38.777Z,11.62
2019-02-28T08:39:41.160Z,11.59
2019-02-28T08:40:38.753Z,11.65
2019-02-28T08:41:38.783Z,11.70
2019-02-28T08:42:39.744Z,11.76
2019-02-28T08:43:38.705Z,11.71
2019-02-28T08:44:38.710Z,11.81
2019-02-28T08:45:38.697Z,11.76
2019-02-28T08:46:38.711Z,11.77
2019-02-28T08:47:41.329Z,11.89
2019-02-28T08:48:41.330Z,11.88
2019-02-28T08:49:44.552Z,11.93
2019-02-28T08:50:38.632Z,11.95
2019-02-28T08:51:38.634Z,12.02
2019-02-28T08:52:41.015Z,11.97
2019-02-28T08:53:38.602Z,12.02
2019-02-28T08:54:38.593Z,12.07
2019-02-28T08:55:39.616Z,12.11
2019-02-28T08:56:38.607Z,12.07
2019-02-28T08:57:38.554Z,12.10
2019-02-28T08:58:38.576Z,12.08
2019-02-28T08:59:38.529Z,12.03
2019-02-28T09:00:38.558Z,12.05
2019-02-28T09:01:41.256Z,12.07
2019-02-28T09:02:38.565Z,12.07
2019-02-28T09:03:40.544Z,12.12
2019-02-28T09:04:41.516Z,12.11
2019-02-28T09:05:38.477Z,12.17
2019-02-28T09:06:41.065Z,12.14
2019-02-28T09:07:41.348Z,12.15
2019-02-28T09:08:38.432Z,12.17
2019-02-28T09:09:41.325Z,12.21
2019-02-28T09:10:38.410Z,12.15
2019-02-28T09:11:39.328Z,12.11
2019-02-28T09:12:38.421Z,12.25
2019-02-28T09:13:39.967Z,12.21
2019-02-28T09:14:38.378Z,12.23
2019-02-28T09:15:38.382Z,12.25
2019-02-28T09:16:40.822Z,12.26
2019-02-28T09:17:38.341Z,12.23
2019-02-28T09:18:41.325Z,12.25
2019-02-28T09:19:38.316Z,12.28
2019-02-28T09:20:38.305Z,12.25
2019-02-28T09:21:38.293Z,12.30
2019-02-28T09:22:38.281Z,12.35
2019-02-28T09:23:38.517Z,12.33
2019-02-28T09:24:38.415Z,12.40
2019-02-28T09:25:38.244Z,12.43
2019-02-28T09:26:38.236Z,12.51
2019-02-28T09:27:38.988Z,12.48
2019-02-28T09:28:38.218Z,12.54
2019-02-28T09:30:37.196Z,12.53
2019-02-28T09:31:39.091Z,12.50
2019-02-28T09:32:40.818Z,12.48
2019-02-28T09:33:38.163Z,12.63
2019-02-28T09:34:38.154Z,12.68
2019-02-28T09:35:38.379Z,12.62
2019-02-28T09:36:38.123Z,12.75
2019-02-28T09:37:38.113Z,12.73
2019-02-28T09:38:42.315Z,12.78
2019-02-28T09:39:38.130Z,12.86
2019-02-28T09:40:41.314Z,12.72
2019-02-28T09:41:40.183Z,12.72
2019-02-28T09:42:38.069Z,12.78
2019-02-28T09:43:38.057Z,12.73
2019-02-28T09:44:38.030Z,12.72
2019-02-28T09:45:39.881Z,12.70
2019-02-28T09:46:38.017Z,12.80
2019-02-28T09:47:38.014Z,12.73
2019-02-28T09:48:38.073Z,12.76
2019-02-28T09:49:38.020Z,12.76
2019-02-28T09:50:37.977Z,12.84
2019-02-28T09:51:37.963Z,12.78
2019-02-28T09:52:41.414Z,12.78
2019-02-28T09:53:37.945Z,12.84
2019-02-28T09:54:37.970Z,12.88
2019-02-28T09:55:39.815Z,12.95
2019-02-28T09:56:41.154Z,12.98
2019-02-28T09:57:37.928Z,13.02
2019-02-28T09:58:37.903Z,13.03
2019-02-28T09:59:38.640Z,13.08
2019-02-28T10:00:38.812Z,13.08
2019-02-28T10:01:37.877Z,13.09
2019-02-28T10:02:40.453Z,12.95
2019-02-28T10:03:38.016Z,13.09
2019-02-28T10:04:37.863Z,13.05
2019-02-28T10:05:39.044Z,13.03
2019-02-28T10:06:37.808Z,13.05
2019-02-28T10:07:37.795Z,13.05
2019-02-28T10:08:40.312Z,13.05
2019-02-28T10:09:40.510Z,13.12
2019-02-28T10:10:37.800Z,13.02
2019-02-28T10:11:37.754Z,13.03
2019-02-28T10:12:42.042Z,13.05
2019-02-28T10:13:37.730Z,13.11
2019-02-28T10:14:40.308Z,13.12
2019-02-28T10:15:38.649Z,13.09
2019-02-28T10:16:37.737Z,13.16
2019-02-28T10:17:38.301Z,13.23
2019-02-28T10:18:40.306Z,13.24
2019-02-28T10:19:45.506Z,13.30
2019-02-28T10:20:37.657Z,13.36
2019-02-28T10:21:39.651Z,13.33
2019-02-28T10:22:37.655Z,13.36
2019-02-28T10:24:39.305Z,13.43
2019-02-28T10:25:43.274Z,13.33
2019-02-28T10:26:37.583Z,13.31
2019-02-28T10:27:37.579Z,13.33
2019-02-28T10:28:37.568Z,13.33
2019-02-28T10:29:38.433Z,13.36
2019-02-28T10:30:38.307Z,13.42
2019-02-28T10:31:38.427Z,13.45
2019-02-28T10:32:40.368Z,13.40
2019-02-28T10:33:40.319Z,13.45
2019-02-28T10:34:40.305Z,13.45
2019-02-28T10:35:37.714Z,13.50
2019-02-28T10:36:37.474Z,13.58
2019-02-28T10:37:37.517Z,13.54
2019-02-28T10:38:37.458Z,13.57
2019-02-28T10:39:43.161Z,13.52
2019-02-28T10:40:37.441Z,13.58
2019-02-28T10:41:37.420Z,13.58
2019-02-28T10:42:40.225Z,13.57
2019-02-28T10:43:37.399Z,13.58
2019-02-28T10:44:37.385Z,13.55
2019-02-28T10:45:40.892Z,13.60
2019-02-28T10:46:37.366Z,13.64
2019-02-28T10:47:37.367Z,13.73
2019-02-28T10:48:41.805Z,13.75
2019-02-28T10:49:37.329Z,13.75
2019-02-28T10:50:37.348Z,13.93
2019-02-28T10:51:37.311Z,13.98
2019-02-28T10:52:37.300Z,13.91
2019-02-28T10:53:39.320Z,14.01
2019-02-28T10:54:37.294Z,14.04
2019-02-28T10:56:36.248Z,14.03
2019-02-28T10:57:40.419Z,14.08
2019-02-28T10:58:37.226Z,14.04
2019-02-28T10:59:37.242Z,14.00
2019-02-28T11:00:37.214Z,14.12
2019-02-28T11:01:41.587Z,14.22
2019-02-28T11:02:37.217Z,14.33
2019-02-28T11:03:37.176Z,14.37
2019-02-28T11:04:42.880Z,14.40
2019-02-28T11:05:37.193Z,14.31
2019-02-28T11:06:37.175Z,14.19
2019-02-28T11:07:37.885Z,14.15
2019-02-28T11:08:37.147Z,14.13
2019-02-28T11:09:37.103Z,14.04
2019-02-28T11:10:37.093Z,13.97
2019-02-28T11:11:37.796Z,14.04
2019-02-28T11:12:37.092Z,13.98
2019-02-28T11:13:37.063Z,14.12
2019-02-28T11:14:38.850Z,14.12
2019-02-28T11:15:37.038Z,14.03
2019-02-28T11:16:37.030Z,14.05
2019-02-28T11:17:37.059Z,14.04
2019-02-28T11:18:37.017Z,13.98
2019-02-28T11:19:37.008Z,14.00
2019-02-28T11:20:37.007Z,13.98
2019-02-28T11:21:36.978Z,13.98
2019-02-28T11:22:39.905Z,13.98
2019-02-28T11:23:36.958Z,14.03
2019-02-28T11:24:36.939Z,14.03
2019-02-28T11:26:35.911Z,14.03
2019-02-28T11:27:36.910Z,14.01
2019-02-28T11:28:37.835Z,14.00
2019-02-28T11:29:36.882Z,13.98
2019-02-28T11:30:36.872Z,14.00
2019-02-28T11:31:36.858Z,14.00
2019-02-28T11:32:36.863Z,13.94
2019-02-28T11:33:39.513Z,13.98
2019-02-28T11:34:36.854Z,13.98
2019-02-28T11:35:36.824Z,14.01
2019-02-28T11:36:36.804Z,14.04
2019-02-28T11:37:36.800Z,14.08
2019-02-28T11:38:36.774Z,14.03
2019-02-28T11:39:36.769Z,14.13
2019-02-28T11:40:36.807Z,14.08
2019-02-28T11:41:36.746Z,14.04
2019-02-28T11:42:36.739Z,14.16
2019-02-28T11:43:38.403Z,14.16
2019-02-28T11:44:36.714Z,14.01
2019-02-28T11:45:36.707Z,14.03
2019-02-28T11:46:36.762Z,14.03
2019-02-28T11:47:36.709Z,14.07
2019-02-28T11:48:36.665Z,14.08
2019-02-28T11:49:36.651Z,14.03
2019-02-28T11:50:41.230Z,14.04
2019-02-28T11:51:36.643Z,14.04
2019-02-28T11:52:36.654Z,14.04
2019-02-28T11:53:40.399Z,14.03
2019-02-28T11:54:36.598Z,14.13
2019-02-28T11:55:39.281Z,14.11
2019-02-28T11:56:36.583Z,14.11
2019-02-28T11:57:37.787Z,14.15
2019-02-28T11:58:36.554Z,14.15
2019-02-28T11:59:36.543Z,14.18
2019-02-28T12:00:36.750Z,14.12
2019-02-28T12:01:36.525Z,14.11
2019-02-28T12:02:36.510Z,14.13
2019-02-28T12:03:36.665Z,14.12
2019-02-28T12:04:37.498Z,14.19
2019-02-28T12:05:36.477Z,14.11
2019-02-28T12:06:36.463Z,14.13
2019-02-28T12:07:36.458Z,14.05
2019-02-28T12:08:41.480Z,14.13
2019-02-28T12:09:38.361Z,14.13
2019-02-28T12:10:36.413Z,14.13
2019-02-28T12:11:37.149Z,14.15
2019-02-28T12:12:36.422Z,14.12
2019-02-28T12:13:36.398Z,14.12
2019-02-28T12:14:36.405Z,14.04
2019-02-28T12:15:38.197Z,14.08
2019-02-28T12:16:36.359Z,14.05
2019-02-28T12:17:36.352Z,14.15
2019-02-28T12:18:39.505Z,14.08
2019-02-28T12:19:36.320Z,14.16
2019-02-28T12:20:36.328Z,14.19
2019-02-28T12:21:38.091Z,14.19
2019-02-28T12:22:36.347Z,14.31
2019-02-28T12:23:36.270Z,14.22
2019-02-28T12:24:36.271Z,14.16
2019-02-28T12:25:36.253Z,14.33
2019-02-28T12:26:36.279Z,14.28
2019-02-28T12:27:36.247Z,14.33
2019-02-28T12:28:38.475Z,14.26
2019-02-28T12:29:36.210Z,14.30
2019-02-28T12:30:36.209Z,14.25
2019-02-28T12:31:36.586Z,14.30
2019-02-28T12:32:36.225Z,14.26
2019-02-28T12:33:36.168Z,14.33
2019-02-28T12:34:36.147Z,14.45
2019-02-28T12:35:40.338Z,14.43
2019-02-28T12:36:36.159Z,14.59
2019-02-28T12:38:35.133Z,14.66
2019-02-28T12:39:36.992Z,14.52
2019-02-28T12:40:36.806Z,14.59
2019-02-28T12:41:36.075Z,14.62
2019-02-28T12:42:36.071Z,14.63
2019-02-28T12:43:36.087Z,14.79
2019-02-28T12:44:36.047Z,14.82
2019-02-28T12:45:36.031Z,14.92
2019-02-28T12:46:36.065Z,14.86
2019-02-28T12:47:38.626Z,14.90
2019-02-28T12:48:36.031Z,14.89
2019-02-28T12:49:35.982Z,14.82
2019-02-28T12:50:36.778Z,14.87
2019-02-28T12:51:36.524Z,14.90
2019-02-28T12:52:35.960Z,14.85
2019-02-28T12:53:35.995Z,14.81
2019-02-28T12:54:35.928Z,14.85
2019-02-28T12:55:38.800Z,14.87
2019-02-28T12:56:35.961Z,14.85
2019-02-28T12:57:36.765Z,14.71
2019-02-28T12:58:39.096Z,14.70
2019-02-28T12:59:35.905Z,14.68
2019-02-28T13:00:35.874Z,14.66
2019-02-28T13:01:35.876Z,14.61
2019-02-28T13:02:35.901Z,14.67
2019-02-28T13:03:35.871Z,14.63
2019-02-28T13:04:38.795Z,14.63
2019-02-28T13:05:35.841Z,14.59
2019-02-28T13:06:36.268Z,14.62
2019-02-28T13:07:35.787Z,14.62
2019-02-28T13:08:38.616Z,14.61
2019-02-28T13:09:35.761Z,14.70
2019-02-28T13:10:35.744Z,14.73
2019-02-28T13:13:34.725Z,14.71
2019-02-28T13:14:36.880Z,14.67
2019-02-28T13:15:35.740Z,14.67
2019-02-28T13:16:35.698Z,14.81
2019-02-28T13:17:35.775Z,14.77
2019-02-28T13:18:35.659Z,14.63
2019-02-28T13:19:35.644Z,14.61
2019-02-28T13:20:36.496Z,14.61
2019-02-28T13:21:35.640Z,14.73
2019-02-28T13:22:38.782Z,14.62
2019-02-28T13:23:35.664Z,14.79
2019-02-28T13:24:35.604Z,14.81
2019-02-28T13:25:35.581Z,14.87
2019-02-28T13:26:35.579Z,14.85
2019-02-28T13:27:41.463Z,14.85
2019-02-28T13:28:35.624Z,14.82
2019-02-28T13:29:38.266Z,14.82
2019-02-28T13:30:35.622Z,14.86